Time,TemperatureF,DewpointF,PressureIn,WindDirection,WindDirectionDegrees,WindSpeedMPH,WindSpeedGustMPH,Humidity,HourlyPrecipIn,Conditions,Clouds,dailyrainin,SoftwareType,DateUTC
2013-06-05 10:19:00,68.7,50.9,30.06,ENE,76,2.0,5.0,53,0.00,CLR,FEW,0.00,WeatherDisplay:10.37,2013-06-05 14:19:00,
2013-06-05 10:24:00,68.7,50.9,30.06,East,80,2.0,7.0,53,0.00,CLR,FEW,0.00,WeatherDisplay:10.37,2013-06-05 14:24:00,
2013-06-05 10:29:00,68.7,50.9,30.06,ENE,73,5.0,7.0,53,0.00,CLR,FEW,0.00,WeatherDisplay:10.37,2013-06-05 14:29:00,
2013-06-05 10:39:00,69.8,52.9,30.06,East,80,5.0,5.0,55,0.00,CLR,FEW,0.00,WeatherDisplay:10.37,2013-06-05 14:39:00,
2013-06-05 10:44:00,70.5,53.6,30.06,ENE,62,5.0,5.0,55,0.00,CLR,FEW,0.00,WeatherDisplay:10.37,2013-06-05 14:44:00,
2013-06-05 10:49:00,70.5,53.6,30.06,ENE,63,3.0,5.0,55,0.00,CLR,FEW,0.00,WeatherDisplay:10.37,2013-06-05 14:49:00,
2013-06-05 10:59:00,70.7,53.2,30.06,ENE,70,1.0,0.0,54,0.00,CLR,FEW,0.00,WeatherDisplay:10.37,2013-06-05 14:59:00,
2013-06-05 11:04:00,71.4,54.4,30.06,ENE,70,1.0,3.0,55,0.00,CLR,FEW,0.00,WeatherDisplay:10.37,2013-06-05 15:04:00,
2013-06-05 11:09:00,72.0,54.9,30.03,ENE,78,1.0,3.0,55,0.00,CLR,FEW,0.00,WeatherDisplay:10.37,2013-06-05 15:09:00,
2013-06-05 11:19:00,71.1,52.0,30.03,ESE,116,1.0,0.0,51,0.00,CLR,FEW,0.00,WeatherDisplay:10.37,2013-06-05 15:19:00,
2013-06-05 11:24:00,71.2,54.7,30.03,ESE,122,1.0,0.0,56,0.00,CLR,FEW,0.00,WeatherDisplay:10.37,2013-06-05 15:24:00,
2013-06-05 11:29:00,71.6,52.5,30.03,SE,130,0.0,0.0,51,0.00,CLR,FEW,0.00,WeatherDisplay:10.37,2013-06-05 15:29:00,
2013-06-05 11:34:00,72.1,54.1,30.03,SE,130,0.0,1.0,53,0.00,CLR,FEW,0.00,WeatherDisplay:10.37,2013-06-05 15:34:00,
2013-06-05 11:39:00,72.1,55.1,30.03,ESE,116,0.0,1.0,55,0.00,CLR,FEW,0.00,WeatherDisplay:10.37,2013-06-05 15:39:00,
2013-06-05 11:49:00,72.9,55.2,30.03,ESE,104,0.0,0.0,54,0.00,CLR,FEW,0.00,WeatherDisplay:10.37,2013-06-05 15:49:00,
2013-06-05 11:54:00,72.9,55.2,30.03,ESE,106,0.0,7.0,54,0.00,CLR,FEW,0.00,WeatherDisplay:10.37,2013-06-05 15:54:00,
2013-06-05 11:59:00,72.7,55.1,30.03,East,89,1.0,7.0,54,0.00,CLR,FEW,0.00,WeatherDisplay:10.37,2013-06-05 15:59:00,
2013-06-05 12:04:00,72.3,53.7,30.03,East,83,1.0,1.0,52,0.00,CLR,FEW,0.00,WeatherDisplay:10.37,2013-06-05 16:04:00,
2013-06-05 12:09:00,72.7,55.1,30.03,East,88,1.0,1.0,54,0.00,CLR,FEW,0.00,WeatherDisplay:10.37,2013-06-05 16:09:00,
2013-06-05 12:19:00,73.0,53.8,30.00,West,261,2.0,5.0,51,0.00,CLR,FEW,0.00,WeatherDisplay:10.37,2013-06-05 16:19:00,
2013-06-05 12:24:00,73.0,54.4,30.00,West,265,2.0,0.0,52,0.00,CLR,FEW,0.00,WeatherDisplay:10.37,2013-06-05 16:24:00,
2013-06-05 12:29:00,72.9,55.7,30.00,SW,224,1.0,0.0,55,0.00,CLR,FEW,0.00,WeatherDisplay:10.37,2013-06-05 16:29:00,
2013-06-05 12:34:00,73.4,56.2,30.00,SSE,150,0.0,0.0,55,0.00,CLR,FEW,0.00,WeatherDisplay:10.37,2013-06-05 16:34:00,
2013-06-05 12:39:00,73.9,55.7,30.00,ESE,119,0.0,9.0,53,0.00,CLR,FEW,0.00,WeatherDisplay:10.37,2013-06-05 16:39:00,
2013-06-05 12:44:00,73.8,54.5,30.00,East,80,1.0,10.0,51,0.00,CLR,FEW,0.00,WeatherDisplay:10.37,2013-06-05 16:44:00,
2013-06-05 12:49:00,73.9,56.2,30.00,ENE,61,5.0,9.0,54,0.00,CLR,FEW,0.00,WeatherDisplay:10.37,2013-06-05 16:49:00,
2013-06-05 12:59:00,73.8,55.0,30.00,ENE,71,7.0,7.0,52,0.00,CLR,FEW,0.00,WeatherDisplay:10.37,2013-06-05 16:59:00,
2013-06-05 13:04:00,73.8,56.1,30.00,ENE,60,6.0,6.0,54,0.00,CLR,FEW,0.00,WeatherDisplay:10.37,2013-06-05 17:04:00,
2013-06-05 13:09:00,73.8,56.1,30.00,NE,48,3.0,5.0,54,0.00,CLR,FEW,0.00,WeatherDisplay:10.37,2013-06-05 17:09:00,
2013-06-05 13:19:00,74.7,55.9,30.00,North,351,2.0,2.0,52,0.00,CLR,FEW,0.00,WeatherDisplay:10.37,2013-06-05 17:19:00,
2013-06-05 13:24:00,75.0,56.7,29.97,NNW,345,2.0,8.0,53,0.00,CLR,FEW,0.00,WeatherDisplay:10.37,2013-06-05 17:24:00,
2013-06-05 13:29:00,73.9,56.8,29.97,NNE,33,5.0,14.0,55,0.00,CLR,FEW,0.00,WeatherDisplay:10.37,2013-06-05 17:29:00,
2013-06-05 13:39:00,73.9,57.3,30.00,NNE,27,9.0,13.0,56,0.00,CLR,FEW,0.00,WeatherDisplay:10.37,2013-06-05 17:39:00,
2013-06-05 13:49:00,73.6,56.9,30.00,NNE,19,12.0,12.0,56,0.00,CLR,FEW,0.00,WeatherDisplay:10.37,2013-06-05 17:49:00,
2013-06-05 13:59:00,73.2,57.1,30.00,NNE,19,9.0,10.0,57,0.00,CLR,FEW,0.00,WeatherDisplay:10.37,2013-06-05 17:59:00,
2013-06-05 14:04:00,73.4,57.2,29.97,North,7,9.0,14.0,57,0.00,CLR,FEW,0.00,WeatherDisplay:10.37,2013-06-05 18:04:00,
2013-06-05 14:09:00,73.2,57.6,29.97,North,355,10.0,13.0,58,0.00,CLR,FEW,0.00,WeatherDisplay:10.37,2013-06-05 18:09:00,
2013-06-05 14:19:00,72.1,57.0,30.00,North,8,12.0,15.0,59,0.00,CLR,FEW,0.00,WeatherDisplay:10.37,2013-06-05 18:19:00,
2013-06-05 14:24:00,72.1,56.5,30.00,North,354,10.0,10.0,58,0.00,CLR,FEW,0.00,WeatherDisplay:10.37,2013-06-05 18:24:00,
2013-06-05 14:29:00,72.1,57.0,30.00,NNW,343,12.0,14.0,59,0.00,CLR,FEW,0.00,WeatherDisplay:10.37,2013-06-05 18:29:00,
2013-06-05 14:39:00,72.9,57.7,30.00,NNE,14,9.0,9.0,59,0.00,CLR,FEW,0.00,WeatherDisplay:10.37,2013-06-05 18:39:00,
2013-06-05 14:49:00,72.1,56.5,30.00,North,358,9.0,11.0,58,0.00,CLR,FEW,0.00,WeatherDisplay:10.37,2013-06-05 18:49:00,
2013-06-05 14:59:00,72.7,57.0,30.00,NNW,345,9.0,13.0,58,0.00,CLR,FEW,0.00,WeatherDisplay:10.37,2013-06-05 18:59:00,
2013-06-05 15:04:00,72.3,55.7,30.00,NNW,334,9.0,9.0,56,0.00,CLR,FEW,0.00,WeatherDisplay:10.37,2013-06-05 19:04:00,
2013-06-05 15:09:00,72.3,55.7,30.00,NNW,335,8.0,8.0,56,0.00,CLR,FEW,0.00,WeatherDisplay:10.37,2013-06-05 19:09:00,
2013-06-05 15:19:00,72.5,56.4,30.00,North,4,9.0,12.0,57,0.00,CLR,FEW,0.00,WeatherDisplay:10.37,2013-06-05 19:19:00,
2013-06-05 15:29:00,72.3,56.2,30.00,North,0,10.0,10.0,57,0.00,CLR,FEW,0.00,WeatherDisplay:10.37,2013-06-05 19:29:00,
2013-06-05 15:39:00,72.9,56.2,29.97,North,8,8.0,8.0,56,0.00,CLR,FEW,0.00,WeatherDisplay:10.37,2013-06-05 19:39:00,
2013-06-05 15:49:00,73.2,56.6,29.97,North,357,7.0,8.0,56,0.00,CLR,FEW,0.00,WeatherDisplay:10.37,2013-06-05 19:49:00,
2013-06-05 15:59:00,73.4,56.2,29.97,North,354,8.0,8.0,55,0.00,CLR,FEW,0.00,WeatherDisplay:10.37,2013-06-05 19:59:00,
2013-06-05 16:04:00,73.2,56.1,29.97,North,11,8.0,9.0,55,0.00,CLR,FEW,0.00,WeatherDisplay:10.37,2013-06-05 20:04:00,
2013-06-05 16:09:00,73.4,55.7,29.97,North,5,8.0,10.0,54,0.00,CLR,FEW,0.00,WeatherDisplay:10.37,2013-06-05 20:09:00,
2013-06-05 16:19:00,73.4,55.7,29.94,NNE,24,9.0,12.0,54,0.00,CLR,FEW,0.00,WeatherDisplay:10.37,2013-06-05 20:19:00,
2013-06-05 16:29:00,73.6,55.9,29.94,NE,44,8.0,8.0,54,0.00,CLR,FEW,0.00,WeatherDisplay:10.37,2013-06-05 20:29:00,
2013-06-05 16:34:00,73.9,56.8,29.94,NNE,16,8.0,8.0,55,0.00,CLR,FEW,0.00,WeatherDisplay:10.37,2013-06-05 20:34:00,
2013-06-05 16:39:00,73.9,56.8,29.94,North,1,8.0,8.0,55,0.00,CLR,FEW,0.00,WeatherDisplay:10.37,2013-06-05 20:39:00,
2013-06-05 16:49:00,73.8,56.1,29.94,North,357,7.0,10.0,54,0.00,CLR,FEW,0.00,WeatherDisplay:10.37,2013-06-05 20:49:00,
2013-06-05 16:59:00,73.4,55.7,29.94,NNE,29,7.0,12.0,54,0.00,CLR,FEW,0.00,WeatherDisplay:10.37,2013-06-05 20:59:00,
2013-06-05 17:04:00,73.6,55.9,29.94,NNE,27,8.0,12.0,54,0.00,CLR,FEW,0.00,WeatherDisplay:10.37,2013-06-05 21:04:00,
2013-06-05 17:09:00,73.4,56.2,29.94,NNE,18,8.0,9.0,55,0.00,CLR,FEW,0.00,WeatherDisplay:10.37,2013-06-05 21:09:00,
2013-06-05 17:19:00,73.6,56.9,29.94,NNW,348,8.0,9.0,56,0.00,CLR,FEW,0.00,WeatherDisplay:10.37,2013-06-05 21:19:00,
2013-06-05 17:29:00,73.2,56.6,29.94,North,4,6.0,7.0,56,0.00,CLR,FEW,0.00,WeatherDisplay:10.37,2013-06-05 21:29:00,
2013-06-05 17:39:00,73.6,57.4,29.94,North,355,5.0,5.0,57,0.00,CLR,FEW,0.00,WeatherDisplay:10.37,2013-06-05 21:39:00,
2013-06-05 17:44:00,73.4,57.7,29.91,North,354,6.0,8.0,58,0.00,CLR,FEW,0.00,WeatherDisplay:10.37,2013-06-05 21:44:00,
2013-06-05 17:49:00,73.2,58.0,29.91,North,355,6.0,8.0,59,0.00,CLR,FEW,0.00,WeatherDisplay:10.37,2013-06-05 21:49:00,
2013-06-05 17:54:00,73.0,57.9,29.91,North,351,6.0,7.0,59,0.00,CLR,FEW,0.00,WeatherDisplay:10.37,2013-06-05 21:54:00,
2013-06-05 17:59:00,72.9,57.2,29.91,North,357,7.0,9.0,58,0.00,CLR,FEW,0.00,WeatherDisplay:10.37,2013-06-05 21:59:00,
2013-06-05 18:04:00,72.9,57.2,29.91,NE,36,7.0,9.0,58,0.00,CLR,FEW,0.00,WeatherDisplay:10.37,2013-06-05 22:04:00,
2013-06-05 18:09:00,72.9,57.2,29.91,NE,45,7.0,7.0,58,0.00,CLR,FEW,0.00,WeatherDisplay:10.37,2013-06-05 22:09:00,
2013-06-05 18:19:00,72.1,57.0,29.91,NNW,339,7.0,9.0,59,0.00,CLR,FEW,0.00,WeatherDisplay:10.37,2013-06-05 22:19:00,
2013-06-05 18:24:00,72.1,57.5,29.91,NNW,345,7.0,9.0,60,0.00,CLR,FEW,0.00,WeatherDisplay:10.37,2013-06-05 22:24:00,
2013-06-05 18:29:00,72.7,58.0,29.91,NNW,341,7.0,8.0,60,0.00,CLR,FEW,0.00,WeatherDisplay:10.37,2013-06-05 22:29:00,
2013-06-05 18:34:00,71.8,57.1,29.91,NNW,345,7.0,8.0,60,0.00,CLR,FEW,0.00,WeatherDisplay:10.37,2013-06-05 22:34:00,
2013-06-05 18:39:00,71.8,57.1,29.91,North,358,7.0,8.0,60,0.00,CLR,FEW,0.00,WeatherDisplay:10.37,2013-06-05 22:39:00,
2013-06-05 18:49:00,71.6,57.0,29.91,North,349,7.0,8.0,60,0.00,CLR,FEW,0.00,WeatherDisplay:10.37,2013-06-05 22:49:00,
2013-06-05 18:59:00,71.2,57.1,29.91,North,4,7.0,7.0,61,0.00,CLR,FEW,0.00,WeatherDisplay:10.37,2013-06-05 22:59:00,
2013-06-05 19:04:00,71.1,57.8,29.91,NNW,345,7.0,7.0,63,0.00,CLR,FEW,0.00,WeatherDisplay:10.37,2013-06-05 23:04:00,
2013-06-05 19:09:00,70.9,57.7,29.91,NNW,339,6.0,6.0,63,0.00,CLR,FEW,0.00,WeatherDisplay:10.37,2013-06-05 23:09:00,
2013-06-05 19:14:00,70.7,57.0,29.91,NNW,345,6.0,9.0,62,0.00,CLR,FEW,0.00,WeatherDisplay:10.37,2013-06-05 23:14:00,
2013-06-05 19:19:00,70.3,56.7,29.91,NNW,344,7.0,9.0,62,0.00,CLR,FEW,0.00,WeatherDisplay:10.37,2013-06-05 23:19:00,
2013-06-05 19:29:00,70.2,56.5,29.91,North,352,6.0,6.0,62,0.00,CLR,FEW,0.00,WeatherDisplay:10.37,2013-06-05 23:29:00,
2013-06-05 19:39:00,70.0,56.4,29.91,North,355,5.0,6.0,62,0.00,CLR,FEW,0.00,WeatherDisplay:10.37,2013-06-05 23:39:00,
2013-06-05 19:49:00,69.3,55.7,29.91,North,352,6.0,7.0,62,0.00,CLR,FEW,0.00,WeatherDisplay:10.37,2013-06-05 23:49:00,
2013-06-05 19:59:00,68.7,55.6,29.91,NNW,344,6.0,6.0,63,0.00,CLR,FEW,0.00,WeatherDisplay:10.37,2013-06-05 23:59:00,
2013-06-05 20:04:00,68.7,56.0,29.91,North,353,5.0,5.0,64,0.00,CLR,FEW,0.00,WeatherDisplay:10.37,2013-06-06 00:04:00,
2013-06-05 20:09:00,68.5,55.4,29.88,North,2,3.0,4.0,63,0.00,CLR,FEW,0.00,WeatherDisplay:10.37,2013-06-06 00:09:00,
2013-06-05 20:14:00,68.4,55.3,29.88,NNE,33,3.0,6.0,63,0.00,CLR,FEW,0.00,WeatherDisplay:10.37,2013-06-06 00:14:00,
2013-06-05 20:19:00,68.2,55.1,29.88,NNE,21,5.0,8.0,63,0.00,CLR,FEW,0.00,WeatherDisplay:10.37,2013-06-06 00:19:00,
2013-06-05 20:24:00,68.4,54.8,29.88,NNE,14,5.0,8.0,62,0.00,CLR,FEW,0.00,WeatherDisplay:10.37,2013-06-06 00:24:00,
2013-06-05 20:29:00,68.2,55.1,29.88,North,5,6.0,8.0,63,0.00,CLR,FEW,0.00,WeatherDisplay:10.37,2013-06-06 00:29:00,
2013-06-05 20:39:00,67.3,55.1,29.88,North,0,3.0,0.0,65,0.00,CLR,FEW,0.00,WeatherDisplay:10.37,2013-06-06 00:39:00,
2013-06-05 20:44:00,66.9,54.3,29.88,North,0,2.0,0.0,64,0.00,CLR,FEW,0.00,WeatherDisplay:10.37,2013-06-06 00:44:00,
2013-06-05 20:49:00,66.9,55.2,29.88,NNE,13,0.0,4.0,66,0.00,CLR,FEW,0.00,WeatherDisplay:10.37,2013-06-06 00:49:00,
2013-06-05 20:54:00,66.6,55.3,29.88,NNE,23,0.0,0.0,67,0.00,CLR,FEW,0.00,WeatherDisplay:10.37,2013-06-06 00:54:00,
2013-06-05 20:59:00,66.2,54.9,29.88,NNE,20,0.0,0.0,67,0.00,CLR,FEW,0.00,WeatherDisplay:10.37,2013-06-06 00:59:00,
2013-06-05 21:04:00,65.7,55.2,29.88,NNE,20,0.0,0.0,69,0.00,CLR,FEW,0.00,WeatherDisplay:10.37,2013-06-06 01:04:00,
2013-06-05 21:09:00,65.3,54.9,29.88,NNE,20,0.0,0.0,69,0.00,CLR,FEW,0.00,WeatherDisplay:10.37,2013-06-06 01:09:00,
2013-06-05 21:19:00,64.2,54.2,29.88,NNE,20,0.0,0.0,70,0.00,CLR,FEW,0.00,WeatherDisplay:10.37,2013-06-06 01:19:00,
2013-06-05 21:24:00,64.2,54.2,29.88,NNE,20,0.0,0.0,70,0.00,CLR,FEW,0.00,WeatherDisplay:10.37,2013-06-06 01:24:00,
2013-06-05 21:29:00,64.2,54.2,29.88,NNE,20,0.0,0.0,70,0.00,CLR,FEW,0.00,WeatherDisplay:10.37,2013-06-06 01:29:00,
2013-06-05 21:39:00,63.5,54.3,29.91,NNE,20,0.0,0.0,72,0.00,CLR,FEW,0.00,WeatherDisplay:10.37,2013-06-06 01:39:00,
2013-06-05 21:49:00,62.8,54.4,29.91,NNE,20,0.0,0.0,74,0.00,CLR,FEW,0.00,WeatherDisplay:10.37,2013-06-06 01:49:00,
2013-06-05 21:59:00,62.4,54.0,29.91,NNE,20,0.0,0.0,74,0.00,CLR,FEW,0.00,WeatherDisplay:10.37,2013-06-06 01:59:00,
2013-06-05 22:04:00,62.2,53.8,29.91,NNE,20,0.0,0.0,74,0.00,CLR,FEW,0.00,WeatherDisplay:10.37,2013-06-06 02:04:00,
2013-06-05 22:09:00,62.1,53.7,29.91,NNE,20,0.0,0.0,74,0.00,CLR,FEW,0.00,WeatherDisplay:10.37,2013-06-06 02:09:00,
2013-06-05 22:19:00,61.7,53.3,29.91,NNE,20,0.0,0.0,74,0.00,CLR,FEW,0.00,WeatherDisplay:10.37,2013-06-06 02:19:00,
2013-06-05 22:24:00,61.7,53.3,29.91,NNE,20,0.0,0.0,74,0.00,CLR,FEW,0.00,WeatherDisplay:10.37,2013-06-06 02:24:00,
2013-06-05 22:29:00,61.5,53.9,29.91,NNE,20,0.0,0.0,76,0.00,CLR,FEW,0.00,WeatherDisplay:10.37,2013-06-06 02:29:00,
2013-06-05 22:39:00,61.2,53.2,29.91,NNE,24,0.0,0.0,75,0.00,CLR,FEW,0.00,WeatherDisplay:10.37,2013-06-06 02:39:00,
2013-06-05 22:49:00,60.8,52.8,29.91,NNE,25,0.0,0.0,75,0.00,CLR,FEW,0.00,WeatherDisplay:10.37,2013-06-06 02:49:00,
2013-06-05 22:54:00,60.8,52.8,29.91,NNE,27,0.0,0.0,75,0.00,CLR,FEW,0.00,WeatherDisplay:10.37,2013-06-06 02:54:00,
2013-06-05 22:59:00,61.0,52.3,29.91,NE,34,0.0,0.0,73,0.00,CLR,FEW,0.00,WeatherDisplay:10.37,2013-06-06 02:59:00,
2013-06-05 23:04:00,61.0,52.6,29.91,NE,40,0.0,0.0,74,0.00,CLR,FEW,0.00,WeatherDisplay:10.37,2013-06-06 03:04:00,
2013-06-05 23:09:00,61.0,52.6,29.91,NE,40,0.0,0.0,74,0.00,CLR,FEW,0.00,WeatherDisplay:10.37,2013-06-06 03:09:00,
2013-06-05 23:19:00,60.8,52.5,29.88,NE,45,0.0,0.0,74,0.00,CLR,FEW,0.00,WeatherDisplay:10.37,2013-06-06 03:19:00,
2013-06-05 23:29:00,60.8,52.8,29.88,NE,45,0.0,1.0,75,0.00,CLR,FEW,0.00,WeatherDisplay:10.37,2013-06-06 03:29:00,
2013-06-05 23:34:00,61.0,53.4,29.88,NE,34,0.0,1.0,76,0.00,CLR,FEW,0.00,WeatherDisplay:10.37,2013-06-06 03:34:00,
2013-06-05 23:39:00,61.0,53.0,29.88,NNE,30,0.0,0.0,75,0.00,CLR,FEW,0.00,WeatherDisplay:10.37,2013-06-06 03:39:00,
2013-06-05 23:49:00,60.8,52.8,29.88,NE,40,1.0,3.0,75,0.00,CLR,FEW,0.00,WeatherDisplay:10.37,2013-06-06 03:49:00,
2013-06-05 23:54:00,61.0,53.0,29.88,NE,40,1.0,0.0,75,0.00,CLR,FEW,0.00,WeatherDisplay:10.37,2013-06-06 03:54:00,
2013-06-05 23:59:00,61.0,53.0,29.88,NE,40,1.0,0.0,75,0.00,CLR,FEW,0.00,WeatherDisplay:10.37,2013-06-06 03:59:00,